createdAt,value
2019-03-20T00:00:02.386Z,85.53
2019-03-20T00:01:08.299Z,85.42
2019-03-20T00:02:13.893Z,85.39
2019-03-20T00:03:19.477Z,85.15
2019-03-20T00:04:25.057Z,85.28
2019-03-20T00:05:30.643Z,85.32
2019-03-20T00:06:36.214Z,85.31
2019-03-20T00:07:41.852Z,85.45
2019-03-20T00:08:47.476Z,85.65
2019-03-20T00:09:53.113Z,85.06
2019-03-20T00:10:58.669Z,85.10
2019-03-20T00:12:04.259Z,85.11
2019-03-20T00:13:09.829Z,84.10
2019-03-20T00:14:15.432Z,83.86
2019-03-20T00:15:21.063Z,83.82
2019-03-20T00:16:26.913Z,83.87
2019-03-20T00:17:32.512Z,84.17
2019-03-20T00:18:38.109Z,83.53
2019-03-20T00:19:43.738Z,83.29
2019-03-20T00:20:49.354Z,83.87
2019-03-20T00:21:54.929Z,84.20
2019-03-20T00:23:00.193Z,84.00
2019-03-20T00:24:05.482Z,84.61
2019-03-20T00:25:10.411Z,83.90
2019-03-20T00:26:15.994Z,84.37
2019-03-20T00:27:21.275Z,84.53
2019-03-20T00:28:26.862Z,84.60
2019-03-20T00:29:32.505Z,85.79
2019-03-20T00:30:38.084Z,86.05
2019-03-20T00:31:43.659Z,86.53
2019-03-20T00:32:48.594Z,86.89
2019-03-20T00:33:54.198Z,87.40
2019-03-20T00:35:01.301Z,87.90
2019-03-20T00:36:05.477Z,88.01
2019-03-20T00:37:10.697Z,87.89
2019-03-20T00:38:16.345Z,86.77
2019-03-20T00:39:21.948Z,86.50
2019-03-20T00:40:27.579Z,86.85
2019-03-20T00:41:33.166Z,87.28
2019-03-20T00:42:38.769Z,87.32
2019-03-20T00:43:44.337Z,86.76
2019-03-20T00:44:49.919Z,87.22
2019-03-20T00:45:55.601Z,87.02
2019-03-20T00:47:01.115Z,86.71
2019-03-20T00:48:06.342Z,86.51
2019-03-20T00:49:11.920Z,87.36
2019-03-20T00:50:16.854Z,88.21
2019-03-20T00:51:22.964Z,88.04
2019-03-20T00:52:28.548Z,87.43
2019-03-20T00:53:34.142Z,87.09
2019-03-20T00:54:39.710Z,87.05
2019-03-20T00:55:45.303Z,86.67
2019-03-20T00:56:50.901Z,87.25
2019-03-20T00:57:56.502Z,87.49
2019-03-20T00:59:02.058Z,87.15
2019-03-20T01:00:06.926Z,87.69
2019-03-20T01:01:12.306Z,87.40
2019-03-20T01:02:17.925Z,86.71
2019-03-20T01:03:23.479Z,86.82
2019-03-20T01:04:29.081Z,86.88
2019-03-20T01:05:34.666Z,86.50
2019-03-20T01:06:40.218Z,86.90
2019-03-20T01:07:45.495Z,87.26
2019-03-20T01:08:50.736Z,87.46
2019-03-20T01:09:56.306Z,87.71
2019-03-20T01:11:01.927Z,87.45
2019-03-20T01:12:06.783Z,87.65
2019-03-20T01:13:12.369Z,87.42
2019-03-20T01:14:17.965Z,87.54
2019-03-20T01:15:22.897Z,86.94
2019-03-20T01:16:28.484Z,87.04
2019-03-20T01:17:34.119Z,87.99
2019-03-20T01:18:39.722Z,88.24
2019-03-20T01:19:45.489Z,87.83
2019-03-20T01:20:51.091Z,87.84
2019-03-20T01:21:56.346Z,88.11
2019-03-20T01:23:01.921Z,88.23
2019-03-20T01:24:07.576Z,88.41
2019-03-20T01:25:12.747Z,88.55
2019-03-20T01:26:18.369Z,89.20
2019-03-20T01:27:23.920Z,89.63
2019-03-20T01:28:29.540Z,89.29
2019-03-20T01:29:35.148Z,88.85
2019-03-20T01:30:40.160Z,88.53
2019-03-20T01:31:45.785Z,88.56
2019-03-20T01:32:51.374Z,89.33
2019-03-20T01:33:57.002Z,89.84
2019-03-20T01:35:02.616Z,90.22
2019-03-20T01:36:08.188Z,90.80
2019-03-20T01:37:13.816Z,91.29
2019-03-20T01:38:19.452Z,91.37
2019-03-20T01:39:25.040Z,90.73
2019-03-20T01:40:30.628Z,90.54
2019-03-20T01:41:38.300Z,90.63
2019-03-20T01:42:41.860Z,91.09
2019-03-20T01:43:47.471Z,91.20
2019-03-20T01:44:53.061Z,91.71
2019-03-20T01:45:58.703Z,91.79
2019-03-20T01:47:06.712Z,91.36
2019-03-20T01:48:09.748Z,91.48
2019-03-20T01:49:15.359Z,91.29
2019-03-20T01:50:20.964Z,91.17
2019-03-20T01:51:26.594Z,91.68
2019-03-20T01:52:32.170Z,92.15
2019-03-20T01:53:37.742Z,92.81
2019-03-20T01:54:43.337Z,93.22
2019-03-20T01:55:48.976Z,92.72
2019-03-20T01:56:54.529Z,92.45
2019-03-20T01:58:00.135Z,91.68
2019-03-20T01:59:05.948Z,92.00
2019-03-20T02:00:10.802Z,92.28
2019-03-20T02:01:16.431Z,92.75
2019-03-20T02:02:22.045Z,93.21
2019-03-20T02:03:27.278Z,93.42
2019-03-20T02:04:32.844Z,93.84
2019-03-20T02:05:38.401Z,94.35
2019-03-20T02:06:43.979Z,93.98
2019-03-20T02:07:49.254Z,93.20
2019-03-20T02:08:54.852Z,93.20
2019-03-20T02:10:00.436Z,93.56
2019-03-20T02:11:06.269Z,93.54
2019-03-20T02:12:11.872Z,93.14
2019-03-20T02:13:17.433Z,93.42
2019-03-20T02:14:23.048Z,93.41
2019-03-20T02:15:37.940Z,93.57
2019-03-20T02:16:34.272Z,93.23
2019-03-20T02:17:39.503Z,93.27
2019-03-20T02:18:45.047Z,93.50
2019-03-20T02:19:50.605Z,94.45
2019-03-20T02:20:56.224Z,94.52
2019-03-20T02:22:01.851Z,94.26
2019-03-20T02:23:07.083Z,94.09
2019-03-20T02:24:12.648Z,93.94
2019-03-20T02:25:17.894Z,94.14
2019-03-20T02:26:23.172Z,94.26
2019-03-20T02:27:28.749Z,94.09
2019-03-20T02:28:34.358Z,94.06
2019-03-20T02:29:39.976Z,93.76
2019-03-20T02:30:45.558Z,93.79
2019-03-20T02:31:51.172Z,93.99
2019-03-20T02:32:56.775Z,94.23
2019-03-20T02:34:02.361Z,94.34
2019-03-20T02:35:07.943Z,94.43
2019-03-20T02:36:13.528Z,94.06
2019-03-20T02:37:19.158Z,93.92
2019-03-20T02:38:24.833Z,94.08
2019-03-20T02:39:30.403Z,94.03
2019-03-20T02:40:35.976Z,93.65
2019-03-20T02:41:41.590Z,94.10
2019-03-20T02:42:47.247Z,94.53
2019-03-20T02:43:52.848Z,94.19
2019-03-20T02:44:58.446Z,93.62
2019-03-20T02:46:04.284Z,93.35
2019-03-20T02:47:09.911Z,93.11
2019-03-20T02:48:15.484Z,92.98
2019-03-20T02:49:21.076Z,92.52
2019-03-20T02:50:26.656Z,92.34
2019-03-20T02:51:32.299Z,92.55
2019-03-20T02:52:37.950Z,93.41
2019-03-20T02:53:43.526Z,93.64
2019-03-20T02:54:49.136Z,93.94
2019-03-20T02:55:54.770Z,93.97
2019-03-20T02:57:00.370Z,93.64
2019-03-20T02:58:05.968Z,93.56
2019-03-20T02:59:11.560Z,93.66
2019-03-20T03:00:17.219Z,94.13
2019-03-20T03:01:22.810Z,94.35
2019-03-20T03:02:28.415Z,94.94
2019-03-20T03:03:33.991Z,96.38
2019-03-20T03:04:39.582Z,97.14
2019-03-20T03:05:45.148Z,97.81
2019-03-20T03:06:50.750Z,98.33
2019-03-20T03:07:56.369Z,99.15
2019-03-20T03:09:01.954Z,99.66
2019-03-20T03:10:06.946Z,99.92
2019-03-20T03:11:12.528Z,99.43
2019-03-20T03:12:18.155Z,99.59
2019-03-20T03:13:24.687Z,99.95
2019-03-20T03:14:30.276Z,100.00
2019-03-20T03:15:35.508Z,99.97
2019-03-20T03:16:41.118Z,99.78
2019-03-20T03:17:46.755Z,100.00
2019-03-20T03:18:52.376Z,99.60
2019-03-20T03:19:57.952Z,99.53
2019-03-20T03:21:03.639Z,99.61
2019-03-20T03:22:09.218Z,99.31
2019-03-20T03:23:14.805Z,99.43
2019-03-20T03:24:20.427Z,99.26
2019-03-20T03:25:25.973Z,99.39
2019-03-20T03:26:31.535Z,99.65
2019-03-20T03:27:37.133Z,99.77
2019-03-20T03:28:42.751Z,99.41
2019-03-20T03:29:48.419Z,99.10
2019-03-20T03:30:54.002Z,99.03
2019-03-20T03:31:59.576Z,99.18
2019-03-20T03:33:05.165Z,99.60
2019-03-20T03:34:10.769Z,100.00
2019-03-20T03:35:18.516Z,100.00
2019-03-20T03:36:22.020Z,100.00
2019-03-20T03:37:26.986Z,100.00
2019-03-20T03:38:32.631Z,100.00
2019-03-20T03:39:38.201Z,100.00
2019-03-20T03:40:43.108Z,100.00
2019-03-20T03:41:48.687Z,100.00
2019-03-20T03:42:54.293Z,100.00
2019-03-20T03:43:59.913Z,100.00
2019-03-20T03:45:04.804Z,100.00
2019-03-20T03:46:10.390Z,100.00
2019-03-20T03:47:15.969Z,100.00
2019-03-20T03:48:21.229Z,100.00
2019-03-20T03:49:26.829Z,100.00
2019-03-20T03:50:32.391Z,100.00
2019-03-20T03:51:37.996Z,100.00
2019-03-20T03:52:43.003Z,100.00
2019-03-20T03:53:48.619Z,100.00
2019-03-20T03:54:54.215Z,100.00
2019-03-20T03:55:59.846Z,100.00
2019-03-20T03:57:05.113Z,100.00
2019-03-20T03:58:10.393Z,100.00
2019-03-20T03:59:15.987Z,100.00
2019-03-20T04:00:21.314Z,100.00
2019-03-20T04:01:26.862Z,100.00
2019-03-20T04:02:32.460Z,100.00
2019-03-20T04:03:38.083Z,100.00
2019-03-20T04:04:43.683Z,100.00
2019-03-20T04:05:49.277Z,100.00
2019-03-20T04:06:54.906Z,100.00
2019-03-20T04:08:00.530Z,100.00
2019-03-20T04:09:05.463Z,100.00
2019-03-20T04:10:13.139Z,100.00
2019-03-20T04:11:18.723Z,100.00
2019-03-20T04:12:24.344Z,100.00
2019-03-20T04:13:29.977Z,100.00
2019-03-20T04:14:35.561Z,100.00
2019-03-20T04:15:41.338Z,100.00
2019-03-20T04:16:46.945Z,100.00
2019-03-20T04:17:52.607Z,100.00
2019-03-20T04:18:57.890Z,100.00
2019-03-20T04:20:03.136Z,100.00
2019-03-20T04:21:08.730Z,100.00
2019-03-20T04:22:14.363Z,100.00
2019-03-20T04:23:19.945Z,100.00
2019-03-20T04:24:25.583Z,100.00
2019-03-20T04:25:31.146Z,100.00
2019-03-20T04:26:36.725Z,100.00
2019-03-20T04:27:41.675Z,100.00
2019-03-20T04:28:47.332Z,100.00
2019-03-20T04:29:52.588Z,100.00
2019-03-20T04:30:58.164Z,100.00
2019-03-20T04:32:03.415Z,100.00
2019-03-20T04:33:09.041Z,100.00
2019-03-20T04:34:14.649Z,100.00
2019-03-20T04:35:19.897Z,100.00
2019-03-20T04:36:25.489Z,100.00
2019-03-20T04:37:31.084Z,100.00
2019-03-20T04:38:36.706Z,100.00
2019-03-20T04:39:42.323Z,100.00
2019-03-20T04:40:47.904Z,100.00
2019-03-20T04:41:53.562Z,100.00
2019-03-20T04:42:59.121Z,100.00
2019-03-20T04:44:04.072Z,100.00
2019-03-20T04:45:12.151Z,100.00
2019-03-20T04:46:15.516Z,100.00
2019-03-20T04:47:21.174Z,100.00
2019-03-20T04:48:26.827Z,100.00
2019-03-20T04:49:32.429Z,100.00
2019-03-20T04:50:38.002Z,100.00
2019-03-20T04:51:43.632Z,100.00
2019-03-20T04:52:49.226Z,100.00
2019-03-20T04:53:54.880Z,100.00
2019-03-20T04:55:00.472Z,100.00
2019-03-20T04:56:05.697Z,100.00
2019-03-20T04:57:11.314Z,100.00
2019-03-20T04:58:16.964Z,100.00
2019-03-20T04:59:22.637Z,100.00
2019-03-20T05:00:28.253Z,100.00
2019-03-20T05:01:33.865Z,100.00
2019-03-20T05:02:39.487Z,100.00
2019-03-20T05:03:45.095Z,100.00
2019-03-20T05:04:50.726Z,100.00
2019-03-20T05:05:56.318Z,100.00
2019-03-20T05:07:01.933Z,100.00
2019-03-20T05:08:07.205Z,100.00
2019-03-20T05:09:12.835Z,100.00
2019-03-20T05:10:18.412Z,100.00
2019-03-20T05:11:24.034Z,100.00
2019-03-20T05:12:29.616Z,100.00
2019-03-20T05:13:35.258Z,100.00
2019-03-20T05:14:40.895Z,100.00
2019-03-20T05:15:46.489Z,100.00
2019-03-20T05:16:52.234Z,100.00
2019-03-20T05:17:58.997Z,100.00
2019-03-20T05:19:04.752Z,100.00
2019-03-20T05:20:12.995Z,100.00
2019-03-20T05:21:18.587Z,100.00
2019-03-20T05:22:24.181Z,100.00
2019-03-20T05:23:29.783Z,100.00
2019-03-20T05:24:35.412Z,100.00
2019-03-20T05:25:41.066Z,100.00
2019-03-20T05:26:46.676Z,100.00
2019-03-20T05:27:52.263Z,100.00
2019-03-20T05:28:57.897Z,100.00
2019-03-20T05:30:03.148Z,100.00
2019-03-20T05:31:08.716Z,100.00
2019-03-20T05:32:14.309Z,100.00
2019-03-20T05:33:19.924Z,100.00
2019-03-20T05:34:25.554Z,100.00
2019-03-20T05:35:31.184Z,100.00
2019-03-20T05:36:36.767Z,100.00
2019-03-20T05:37:42.047Z,100.00
2019-03-20T05:38:47.666Z,100.00
2019-03-20T05:39:53.272Z,100.00
2019-03-20T05:40:58.897Z,100.00
2019-03-20T05:42:04.207Z,100.00
2019-03-20T05:43:09.788Z,100.00
2019-03-20T05:44:15.406Z,100.00
2019-03-20T05:45:20.353Z,100.00
2019-03-20T05:46:25.993Z,100.00
2019-03-20T05:47:31.573Z,100.00
2019-03-20T05:48:37.128Z,100.00
2019-03-20T05:49:42.814Z,100.00
2019-03-20T05:50:48.409Z,100.00
2019-03-20T05:51:53.776Z,100.00
2019-03-20T05:52:59.375Z,100.00
2019-03-20T05:54:05.057Z,100.00
2019-03-20T05:55:09.948Z,100.00
2019-03-20T05:56:16.184Z,100.00
2019-03-20T05:57:21.784Z,100.00
2019-03-20T05:58:27.400Z,100.00
2019-03-20T05:59:33.047Z,100.00
2019-03-20T06:00:38.704Z,100.00
2019-03-20T06:01:44.283Z,100.00
2019-03-20T06:02:49.854Z,100.00
2019-03-20T06:03:55.477Z,100.00
2019-03-20T06:05:01.085Z,100.00
2019-03-20T06:06:06.655Z,100.00
2019-03-20T06:07:21.123Z,100.00
2019-03-20T06:08:17.879Z,100.00
2019-03-20T06:09:23.562Z,100.00
2019-03-20T06:10:29.174Z,100.00
2019-03-20T06:11:34.770Z,100.00
2019-03-20T06:12:40.378Z,100.00
2019-03-20T06:13:45.923Z,100.00
2019-03-20T06:14:51.531Z,100.00
2019-03-20T06:15:57.089Z,100.00
2019-03-20T06:17:02.660Z,99.44
2019-03-20T06:18:08.838Z,99.24
2019-03-20T06:19:16.218Z,99.33
2019-03-20T06:20:21.792Z,99.53
2019-03-20T06:21:27.432Z,99.20
2019-03-20T06:22:33.041Z,99.59
2019-03-20T06:23:38.708Z,99.58
2019-03-20T06:24:44.308Z,99.65
2019-03-20T06:25:51.514Z,99.53
2019-03-20T06:26:55.493Z,98.79
2019-03-20T06:28:01.071Z,97.98
2019-03-20T06:29:06.636Z,97.12
2019-03-20T06:30:12.401Z,96.50
2019-03-20T06:31:18.842Z,95.31
2019-03-20T06:32:23.629Z,94.94
2019-03-20T06:33:29.261Z,94.96
2019-03-20T06:34:34.887Z,94.23
2019-03-20T06:35:40.473Z,94.65
2019-03-20T06:36:46.031Z,94.42
2019-03-20T06:37:51.591Z,93.92
2019-03-20T06:38:57.182Z,93.51
2019-03-20T06:40:02.812Z,94.37
2019-03-20T06:41:08.409Z,94.94
2019-03-20T06:42:14.003Z,93.96
2019-03-20T06:43:19.617Z,92.85
2019-03-20T06:44:25.256Z,93.28
2019-03-20T06:45:30.928Z,94.16
2019-03-20T06:46:36.508Z,93.95
2019-03-20T06:47:42.144Z,93.59
2019-03-20T06:48:47.737Z,93.13
2019-03-20T06:49:53.376Z,93.07
2019-03-20T06:50:58.939Z,92.36
2019-03-20T06:52:04.145Z,92.25
2019-03-20T06:53:09.756Z,91.70
2019-03-20T06:54:15.344Z,91.66
2019-03-20T06:55:20.952Z,92.04
2019-03-20T06:56:26.543Z,91.01
2019-03-20T06:57:32.130Z,90.27
2019-03-20T06:58:37.701Z,90.20
2019-03-20T06:59:52.337Z,90.54
2019-03-20T07:00:58.710Z,91.91
2019-03-20T07:02:03.754Z,91.30
2019-03-20T07:03:09.311Z,91.33
2019-03-20T07:04:14.188Z,91.30
2019-03-20T07:05:27.527Z,91.42
2019-03-20T07:08:10.621Z,92.02
2019-03-20T07:09:20.990Z,91.80
2019-03-20T07:10:26.716Z,90.51
2019-03-20T07:11:31.634Z,90.48
2019-03-20T07:12:37.350Z,89.78
2019-03-20T07:13:43.016Z,89.75
2019-03-20T07:14:48.615Z,88.53
2019-03-20T07:15:54.268Z,87.59
2019-03-20T07:16:59.838Z,87.31
2019-03-20T07:18:04.776Z,87.27
2019-03-20T07:19:10.345Z,86.71
2019-03-20T07:20:15.923Z,86.35
2019-03-20T07:21:21.494Z,86.81
2019-03-20T07:22:27.116Z,87.26
2019-03-20T07:23:32.739Z,87.21
2019-03-20T07:24:38.328Z,85.97
2019-03-20T07:25:43.910Z,86.65
2019-03-20T07:26:49.522Z,86.63
2019-03-20T07:27:55.146Z,86.13
2019-03-20T07:29:00.749Z,85.46
2019-03-20T07:30:05.666Z,84.83
2019-03-20T07:31:15.713Z,84.82
2019-03-20T07:32:16.532Z,84.77
2019-03-20T07:33:22.130Z,83.91
2019-03-20T07:34:27.686Z,84.16
2019-03-20T07:35:33.267Z,84.30
2019-03-20T07:36:38.889Z,84.38
2019-03-20T07:37:55.280Z,84.17
2019-03-20T07:38:49.715Z,83.98
2019-03-20T07:39:55.267Z,83.28
2019-03-20T07:41:00.881Z,82.58
2019-03-20T07:42:06.108Z,82.49
2019-03-20T07:43:11.371Z,82.40
2019-03-20T07:44:16.998Z,82.21
2019-03-20T07:45:22.554Z,81.28
2019-03-20T07:46:28.153Z,81.44
2019-03-20T07:47:33.716Z,81.17
2019-03-20T07:48:40.752Z,81.91
2019-03-20T07:49:44.898Z,81.93
2019-03-20T07:50:50.479Z,81.64
2019-03-20T07:51:56.076Z,82.28
2019-03-20T07:53:01.308Z,82.42
2019-03-20T07:54:06.948Z,82.55
2019-03-20T07:55:12.534Z,82.52
2019-03-20T07:56:18.313Z,81.50
2019-03-20T07:57:23.881Z,81.48
2019-03-20T07:58:29.468Z,81.56
2019-03-20T07:59:35.090Z,80.94
2019-03-20T08:00:40.327Z,81.03
2019-03-20T08:01:45.916Z,78.62
2019-03-20T08:02:51.484Z,79.43
2019-03-20T08:03:57.078Z,80.34
2019-03-20T08:05:02.694Z,79.33
2019-03-20T08:06:08.293Z,79.09
2019-03-20T08:07:13.973Z,79.30
2019-03-20T08:08:19.531Z,78.34
2019-03-20T08:09:25.774Z,77.87
2019-03-20T08:10:30.723Z,77.98
2019-03-20T08:11:35.967Z,77.75
2019-03-20T08:12:41.237Z,77.78
2019-03-20T08:13:46.900Z,77.54
2019-03-20T08:14:52.484Z,76.98
2019-03-20T08:15:58.085Z,77.03
2019-03-20T08:17:03.316Z,76.75
2019-03-20T08:18:08.910Z,75.32
2019-03-20T08:19:14.472Z,74.39
2019-03-20T08:20:22.014Z,73.83
2019-03-20T08:21:27.643Z,73.95
2019-03-20T08:22:33.202Z,75.03
2019-03-20T08:23:38.763Z,74.52
2019-03-20T08:24:44.365Z,74.61
2019-03-20T08:25:49.968Z,75.11
2019-03-20T08:26:55.579Z,73.26
2019-03-20T08:28:01.211Z,73.81
2019-03-20T08:29:06.788Z,73.78
2019-03-20T08:30:13.745Z,73.07
2019-03-20T08:31:17.321Z,73.69
2019-03-20T08:32:22.937Z,73.24
2019-03-20T08:33:28.571Z,72.28
2019-03-20T08:34:34.196Z,73.16
2019-03-20T08:35:39.750Z,71.91
2019-03-20T08:36:45.332Z,72.85
2019-03-20T08:37:50.914Z,73.27
2019-03-20T08:38:56.500Z,73.34
2019-03-20T08:40:02.086Z,71.88
2019-03-20T08:41:07.730Z,71.79
2019-03-20T08:42:13.350Z,72.14
2019-03-20T08:43:18.977Z,71.61
2019-03-20T08:44:24.228Z,68.56
2019-03-20T08:45:29.842Z,67.98
2019-03-20T08:46:35.478Z,67.54
2019-03-20T08:47:40.718Z,66.46
2019-03-20T08:48:48.328Z,66.34
2019-03-20T08:49:51.943Z,66.83
2019-03-20T08:50:57.522Z,66.34
2019-03-20T08:52:03.147Z,66.83
2019-03-20T08:53:08.705Z,67.36
2019-03-20T08:54:14.348Z,66.25
2019-03-20T08:55:19.193Z,63.92
2019-03-20T08:56:24.784Z,63.66
2019-03-20T08:57:30.417Z,64.34
2019-03-20T08:58:35.989Z,65.80
2019-03-20T08:59:41.577Z,65.40
2019-03-20T09:00:46.803Z,64.44
2019-03-20T09:01:52.399Z,65.06
2019-03-20T09:02:57.978Z,65.49
2019-03-20T09:04:03.573Z,63.94
2019-03-20T09:05:08.496Z,63.45
2019-03-20T09:06:13.750Z,64.60
2019-03-20T09:07:19.373Z,63.33
2019-03-20T09:08:29.225Z,64.15
2019-03-20T09:09:30.574Z,63.36
2019-03-20T09:10:36.217Z,64.17
2019-03-20T09:11:41.786Z,65.30
2019-03-20T09:12:47.061Z,63.49
2019-03-20T09:13:52.885Z,63.21
2019-03-20T09:14:58.519Z,61.89
2019-03-20T09:16:03.724Z,62.55
2019-03-20T09:17:09.350Z,62.91
2019-03-20T09:18:14.927Z,61.43
2019-03-20T09:19:20.526Z,62.43
2019-03-20T09:20:26.177Z,63.46
2019-03-20T09:21:31.766Z,63.04
2019-03-20T09:22:37.400Z,62.02
2019-03-20T09:23:42.983Z,62.56
2019-03-20T09:24:48.602Z,63.15
2019-03-20T09:25:54.162Z,61.92
2019-03-20T09:26:59.742Z,61.25
2019-03-20T09:28:05.022Z,62.38
2019-03-20T09:29:18.656Z,60.01
2019-03-20T09:30:25.480Z,59.83
2019-03-20T09:31:31.099Z,59.80
2019-03-20T09:32:36.715Z,61.77
2019-03-20T09:33:42.334Z,60.86
2019-03-20T09:34:47.939Z,60.76
2019-03-20T09:35:53.538Z,61.00
2019-03-20T09:36:59.154Z,59.98
2019-03-20T09:38:04.428Z,59.27
2019-03-20T09:39:10.031Z,60.54
2019-03-20T09:40:17.654Z,60.44
2019-03-20T09:41:23.300Z,61.53
2019-03-20T09:42:28.928Z,60.63
2019-03-20T09:43:34.518Z,59.67
2019-03-20T09:44:40.102Z,60.07
2019-03-20T09:45:45.684Z,61.24
2019-03-20T09:46:51.265Z,61.53
2019-03-20T09:47:56.865Z,60.52
2019-03-20T09:49:02.427Z,60.35
2019-03-20T09:50:08.714Z,59.94
2019-03-20T09:51:14.322Z,60.59
2019-03-20T09:52:19.957Z,61.23
2019-03-20T09:53:25.529Z,60.27
2019-03-20T09:54:31.149Z,58.99
2019-03-20T09:55:36.727Z,59.27
2019-03-20T09:56:42.352Z,59.26
2019-03-20T09:57:47.633Z,59.05
2019-03-20T09:58:53.294Z,58.31
2019-03-20T09:59:58.853Z,57.98
2019-03-20T10:01:03.775Z,57.65
2019-03-20T10:02:09.551Z,57.38
2019-03-20T10:03:15.233Z,58.09
2019-03-20T10:04:20.842Z,57.98
2019-03-20T10:05:26.132Z,58.32
2019-03-20T10:06:31.374Z,58.19
2019-03-20T10:07:37.042Z,57.29
2019-03-20T10:08:42.630Z,57.55
2019-03-20T10:09:48.199Z,56.99
2019-03-20T10:10:53.789Z,56.53
2019-03-20T10:11:59.377Z,56.36
2019-03-20T10:13:04.294Z,57.67
2019-03-20T10:14:09.868Z,57.96
2019-03-20T10:15:17.572Z,58.82
2019-03-20T10:16:23.239Z,58.31
2019-03-20T10:17:28.836Z,58.30
2019-03-20T10:18:34.453Z,57.98
2019-03-20T10:19:40.062Z,58.27
2019-03-20T10:20:45.639Z,57.57
2019-03-20T10:21:51.224Z,57.33
2019-03-20T10:22:56.526Z,57.29
2019-03-20T10:24:02.149Z,58.34
2019-03-20T10:25:07.050Z,58.42
2019-03-20T10:26:12.740Z,59.00
2019-03-20T10:27:18.352Z,59.33
2019-03-20T10:28:23.967Z,58.48
2019-03-20T10:29:29.553Z,58.21
2019-03-20T10:30:34.780Z,59.83
2019-03-20T10:31:40.362Z,58.90
2019-03-20T10:32:45.995Z,58.09
2019-03-20T10:33:51.553Z,58.15
2019-03-20T10:34:57.345Z,59.64
2019-03-20T10:36:02.925Z,58.86
2019-03-20T10:37:08.529Z,57.44
2019-03-20T10:38:14.177Z,57.21
2019-03-20T10:39:19.765Z,58.01
2019-03-20T10:40:24.655Z,56.66
2019-03-20T10:41:30.314Z,56.73
2019-03-20T10:42:35.913Z,57.62
2019-03-20T10:43:41.535Z,57.46
2019-03-20T10:44:47.171Z,56.73
2019-03-20T10:45:52.794Z,56.30
2019-03-20T10:46:58.416Z,57.20
2019-03-20T10:48:03.712Z,58.39
2019-03-20T10:49:09.278Z,56.67
2019-03-20T10:50:22.685Z,56.06
2019-03-20T10:51:28.304Z,56.25
2019-03-20T10:52:33.905Z,56.41
2019-03-20T10:53:39.765Z,57.02
2019-03-20T10:54:45.717Z,56.79
2019-03-20T10:55:51.976Z,57.14
2019-03-20T10:56:56.899Z,54.75
2019-03-20T10:58:02.507Z,57.35
2019-03-20T10:59:08.245Z,56.92
2019-03-20T11:00:15.841Z,56.41
2019-03-20T11:01:21.917Z,55.69
2019-03-20T11:02:27.721Z,56.06
2019-03-20T11:03:33.438Z,54.83
2019-03-20T11:04:39.183Z,55.24
2019-03-20T11:05:44.808Z,54.39
2019-03-20T11:06:50.417Z,53.91
2019-03-20T11:07:56.047Z,53.41
2019-03-20T11:09:01.674Z,54.75
2019-03-20T11:10:06.860Z,54.14
2019-03-20T11:11:12.477Z,53.96
2019-03-20T11:12:18.106Z,54.31
2019-03-20T11:13:23.450Z,55.07
2019-03-20T11:14:29.365Z,54.59
2019-03-20T11:15:34.802Z,55.39
2019-03-20T11:16:40.477Z,54.27
2019-03-20T11:17:45.546Z,53.42
2019-03-20T11:18:51.493Z,54.34
2019-03-20T11:19:57.366Z,53.22
2019-03-20T11:21:02.607Z,52.52
2019-03-20T11:22:18.266Z,51.62
2019-03-20T11:23:14.039Z,52.97
2019-03-20T11:24:19.884Z,53.33
2019-03-20T11:25:26.256Z,54.11
2019-03-20T11:26:31.535Z,53.55
2019-03-20T11:27:37.188Z,50.96
2019-03-20T11:28:42.815Z,52.25
2019-03-20T11:29:48.083Z,53.31
2019-03-20T11:30:53.684Z,55.18
2019-03-20T11:31:58.884Z,54.61
2019-03-20T11:33:04.135Z,54.95
2019-03-20T11:34:09.981Z,53.79
2019-03-20T11:35:15.312Z,52.95
2019-03-20T11:36:20.773Z,53.29
2019-03-20T11:37:26.427Z,52.25
2019-03-20T11:38:32.102Z,53.30
2019-03-20T11:39:37.826Z,53.19
2019-03-20T11:40:43.517Z,52.25
2019-03-20T11:41:49.160Z,52.34
2019-03-20T11:42:54.412Z,53.94
2019-03-20T11:44:00.048Z,53.41
2019-03-20T11:45:04.953Z,53.21
2019-03-20T11:46:10.514Z,52.03
2019-03-20T11:47:16.163Z,51.67
2019-03-20T11:48:21.758Z,51.37
2019-03-20T11:49:27.475Z,51.93
2019-03-20T11:50:32.408Z,52.76
2019-03-20T11:51:38.021Z,52.08
2019-03-20T11:52:43.611Z,53.22
2019-03-20T11:53:49.252Z,51.40
2019-03-20T11:54:54.919Z,52.84
2019-03-20T11:56:00.240Z,51.15
2019-03-20T11:57:06.053Z,52.13
2019-03-20T11:58:12.082Z,52.01
2019-03-20T11:59:17.943Z,51.92
2019-03-20T12:00:23.161Z,51.82
2019-03-20T12:01:29.077Z,52.32
2019-03-20T12:02:34.743Z,52.00
2019-03-20T12:03:40.346Z,51.25
2019-03-20T12:04:46.238Z,50.29
2019-03-20T12:05:51.894Z,50.57
2019-03-20T12:06:57.562Z,50.50
2019-03-20T12:08:02.536Z,52.07
2019-03-20T12:09:07.706Z,53.06
2019-03-20T12:10:31.454Z,52.30
2019-03-20T12:11:45.432Z,52.56
2019-03-20T12:12:42.429Z,51.91
2019-03-20T12:13:48.032Z,50.65
2019-03-20T12:14:53.632Z,50.09
2019-03-20T12:15:59.276Z,50.47
2019-03-20T12:17:04.554Z,51.17
2019-03-20T12:18:10.210Z,51.13
2019-03-20T12:19:15.881Z,51.57
2019-03-20T12:20:21.541Z,50.97
2019-03-20T12:21:27.130Z,51.73
2019-03-20T12:22:32.718Z,51.64
2019-03-20T12:23:38.311Z,50.04
2019-03-20T12:24:43.936Z,51.24
2019-03-20T12:25:49.513Z,51.19
2019-03-20T12:26:55.131Z,50.05
2019-03-20T12:28:00.539Z,50.76
2019-03-20T12:29:05.438Z,50.19
2019-03-20T12:30:10.364Z,50.97
2019-03-20T12:31:15.949Z,53.89
2019-03-20T12:32:21.556Z,51.00
2019-03-20T12:33:27.302Z,50.93
2019-03-20T12:34:32.969Z,50.73
2019-03-20T12:35:39.704Z,52.24
2019-03-20T12:36:45.286Z,51.37
2019-03-20T12:37:51.197Z,50.08
2019-03-20T12:38:57.071Z,49.87
2019-03-20T12:40:02.572Z,49.32
2019-03-20T12:41:08.211Z,48.19
2019-03-20T12:42:13.856Z,48.39
2019-03-20T12:43:19.773Z,48.45
2019-03-20T12:44:25.534Z,47.66
2019-03-20T12:45:33.999Z,48.92
2019-03-20T12:46:41.708Z,48.49
2019-03-20T12:47:45.084Z,49.06
2019-03-20T12:48:50.774Z,48.66
2019-03-20T12:49:56.541Z,48.58
2019-03-20T12:51:02.228Z,48.24
2019-03-20T12:52:07.984Z,48.75
2019-03-20T12:53:16.467Z,49.87
2019-03-20T12:54:22.095Z,49.01
2019-03-20T12:55:27.832Z,51.28
2019-03-20T12:56:33.554Z,51.90
2019-03-20T12:57:39.310Z,49.67
2019-03-20T12:58:45.016Z,50.20
2019-03-20T12:59:50.789Z,50.28
2019-03-20T13:00:56.416Z,49.19
2019-03-20T13:02:02.066Z,47.64
2019-03-20T13:03:07.349Z,47.73
2019-03-20T13:04:13.157Z,49.32
2019-03-20T13:05:18.226Z,50.21
2019-03-20T13:06:23.847Z,50.00
2019-03-20T13:07:29.658Z,49.43
2019-03-20T13:08:35.459Z,48.73
2019-03-20T13:09:41.220Z,49.16
2019-03-20T13:10:47.046Z,47.40
2019-03-20T13:11:52.780Z,48.57
2019-03-20T13:12:58.833Z,50.90
2019-03-20T13:14:03.853Z,48.10
2019-03-20T13:15:10.705Z,49.58
2019-03-20T13:16:16.345Z,48.74
2019-03-20T13:17:22.049Z,48.85
2019-03-20T13:18:27.791Z,50.17
2019-03-20T13:19:33.408Z,49.03
2019-03-20T13:20:39.066Z,47.80
2019-03-20T13:21:44.788Z,47.42
2019-03-20T13:22:53.532Z,48.20
2019-03-20T13:23:59.267Z,48.07
2019-03-20T13:25:06.112Z,48.74
2019-03-20T13:26:12.060Z,49.33
2019-03-20T13:27:17.328Z,47.78
2019-03-20T13:28:22.960Z,47.07
2019-03-20T13:29:28.636Z,47.07
2019-03-20T13:32:18.577Z,46.94
2019-03-20T13:33:26.114Z,47.83
2019-03-20T13:34:29.969Z,46.90
2019-03-20T13:35:35.731Z,47.96
2019-03-20T13:36:41.377Z,46.81
2019-03-20T13:37:47.231Z,46.72
2019-03-20T13:38:52.974Z,46.94
2019-03-20T13:39:58.784Z,46.74
2019-03-20T13:41:04.099Z,46.73
2019-03-20T13:42:09.931Z,47.45
2019-03-20T13:43:15.755Z,46.49
2019-03-20T13:44:21.581Z,46.41
2019-03-20T13:45:26.569Z,46.77
2019-03-20T13:46:32.289Z,48.46
2019-03-20T13:47:38.084Z,47.31
2019-03-20T13:48:43.741Z,46.71
2019-03-20T13:49:49.297Z,47.83
2019-03-20T13:50:54.594Z,47.26
2019-03-20T13:52:00.189Z,47.30
2019-03-20T13:53:05.388Z,46.58
2019-03-20T13:54:10.959Z,46.71
2019-03-20T13:55:16.822Z,47.77
2019-03-20T13:56:22.474Z,46.02
2019-03-20T13:57:28.102Z,47.67
2019-03-20T13:58:33.660Z,46.31
2019-03-20T13:59:39.248Z,47.84
2019-03-20T14:00:44.877Z,47.38
2019-03-20T14:01:50.475Z,46.95
2019-03-20T14:02:55.737Z,48.12